Terminal Aerodrome Forecast
Issued by NWS Newport/Morehead City, NC

Home | Current Version | Previous Version | Text Only | Print | Product List | Glossary On
Versions: 1 2 3 4 5 6 7 8 9 10 11 12 13 14 15 16
000
FTUS42 KMHX 250554
TAFEWN
TAF
KEWN 250554Z 2506/2606 05006KT P6SM BKN013
     FM250800 05007KT P6SM BKN008
     FM251500 03010G18KT P6SM BKN015
     FM260400 01009G16KT P6SM BKN010=

USA.gov is the U.S. government's official web portal to all federal, state and local government web resources and services.